sensor_id;sensor_type;location;lat;lon;timestamp;pressure;altitude;pressure_sealevel;temperature;humidity
68628;BME280;55611;48.602;9.490;2023-02-24T00:02:15;96440;;;12;56.5
68628;BME280;55611;48.602;9.490;2023-02-24T00:04:46;96440;;;11.9;56.5
68628;BME280;55611;48.602;9.490;2023-02-24T00:07:17;96430;;;12;56.5
68628;BME280;55611;48.602;9.490;2023-02-24T00:09:47;96430;;;12;57
68628;BME280;55611;48.602;9.490;2023-02-24T00:12:17;96430;;;12;57
68628;BME280;55611;48.602;9.490;2023-02-24T00:14:48;96430;;;12;57
68628;BME280;55611;48.602;9.490;2023-02-24T00:17:18;96430;;;12;57
68628;BME280;55611;48.602;9.490;2023-02-24T00:19:49;96430;;;11.9;57
68628;BME280;55611;48.602;9.490;2023-02-24T00:22:19;96430;;;11.9;57
68628;BME280;55611;48.602;9.490;2023-02-24T00:24:52;96430;;;11.8;57
68628;BME280;55611;48.602;9.490;2023-02-24T00:27:21;96430;;;11.7;57
68628;BME280;55611;48.602;9.490;2023-02-24T00:32:22;96420;;;11.7;57
68628;BME280;55611;48.602;9.490;2023-02-24T00:34:52;96420;;;11.7;57
68628;BME280;55611;48.602;9.490;2023-02-24T00:37:23;96420;;;11.7;57
68628;BME280;55611;48.602;9.490;2023-02-24T00:42:24;96420;;;11.7;57
68628;BME280;55611;48.602;9.490;2023-02-24T00:44:54;96420;;;11.8;57
68628;BME280;55611;48.602;9.490;2023-02-24T00:47:25;96420;;;11.9;57
68628;BME280;55611;48.602;9.490;2023-02-24T00:49:55;96420;;;12;57
68628;BME280;55611;48.602;9.490;2023-02-24T00:52:26;96410;;;12;57
68628;BME280;55611;48.602;9.490;2023-02-24T00:54:56;96410;;;12.1;57
68628;BME280;55611;48.602;9.490;2023-02-24T00:57:27;96410;;;12.1;57
68628;BME280;55611;48.602;9.490;2023-02-24T00:59:57;96410;;;12.2;57
68628;BME280;55611;48.602;9.490;2023-02-24T01:02:28;96410;;;12.2;57
68628;BME280;55611;48.602;9.490;2023-02-24T01:04:58;96400;;;12.3;57
68628;BME280;55611;48.602;9.490;2023-02-24T01:07:29;96400;;;12.4;56.5
68628;BME280;55611;48.602;9.490;2023-02-24T01:09:59;96400;;;12.4;56.5
68628;BME280;55611;48.602;9.490;2023-02-24T01:12:30;96390;;;12.5;56.5
68628;BME280;55611;48.602;9.490;2023-02-24T01:15:00;96390;;;12.5;56.5
68628;BME280;55611;48.602;9.490;2023-02-24T01:17:31;96390;;;12.5;56.5
68628;BME280;55611;48.602;9.490;2023-02-24T01:20:02;96380;;;12.5;56.5
68628;BME280;55611;48.602;9.490;2023-02-24T01:22:32;96380;;;12.5;56.5
68628;BME280;55611;48.602;9.490;2023-02-24T01:25:03;96380;;;12.6;56.5
68628;BME280;55611;48.602;9.490;2023-02-24T01:27:33;96380;;;12.5;56.5
68628;BME280;55611;48.602;9.490;2023-02-24T01:30:04;96380;;;12.6;56
68628;BME280;55611;48.602;9.490;2023-02-24T01:32:34;96370;;;12.6;56
68628;BME280;55611;48.602;9.490;2023-02-24T01:35:05;96380;;;12.6;56
68628;BME280;55611;48.602;9.490;2023-02-24T01:37:35;96380;;;12.5;56.5
68628;BME280;55611;48.602;9.490;2023-02-24T01:40:06;96370;;;12.4;56.5
68628;BME280;55611;48.602;9.490;2023-02-24T01:42:36;96370;;;12.5;56.5
68628;BME280;55611;48.602;9.490;2023-02-24T01:47:37;96360;;;12.5;56.5
68628;BME280;55611;48.602;9.490;2023-02-24T01:50:09;96360;;;12.5;56.5
68628;BME280;55611;48.602;9.490;2023-02-24T01:52:38;96360;;;12.5;56.5
68628;BME280;55611;48.602;9.490;2023-02-24T01:55:11;96360;;;12.5;56.5
68628;BME280;55611;48.602;9.490;2023-02-24T01:57:39;96360;;;12.4;56.5
68628;BME280;55611;48.602;9.490;2023-02-24T02:00:10;96350;;;12.3;56.5
68628;BME280;55611;48.602;9.490;2023-02-24T02:02:42;96350;;;12.3;56.5
68628;BME280;55611;48.602;9.490;2023-02-24T02:05:11;96360;;;12.3;57
68628;BME280;55611;48.602;9.490;2023-02-24T02:07:41;96360;;;12.3;57
68628;BME280;55611;48.602;9.490;2023-02-24T02:10:12;96360;;;12.3;57
68628;BME280;55611;48.602;9.490;2023-02-24T02:12:42;96360;;;12.3;57
68628;BME280;55611;48.602;9.490;2023-02-24T02:15:14;96360;;;12.3;57
68628;BME280;55611;48.602;9.490;2023-02-24T02:18:17;96350;;;12.2;57
68628;BME280;55611;48.602;9.490;2023-02-24T02:20:21;96350;;;12.1;57
68628;BME280;55611;48.602;9.490;2023-02-24T02:22:49;96350;;;12.1;57
68628;BME280;55611;48.602;9.490;2023-02-24T02:25:17;96350;;;12.1;57
68628;BME280;55611;48.602;9.490;2023-02-24T02:30:20;96350;;;12;57
68628;BME280;55611;48.602;9.490;2023-02-24T02:32:54;96350;;;12;57
68628;BME280;55611;48.602;9.490;2023-02-24T02:35:25;96350;;;12;57
68628;BME280;55611;48.602;9.490;2023-02-24T02:37:51;96350;;;12;57
68628;BME280;55611;48.602;9.490;2023-02-24T02:40:27;96340;;;11.9;57
68628;BME280;55611;48.602;9.490;2023-02-24T02:45:21;96340;;;11.9;57
68628;BME280;55611;48.602;9.490;2023-02-24T02:47:53;96340;;;11.9;57
68628;BME280;55611;48.602;9.490;2023-02-24T02:50:22;96340;;;11.9;57
68628;BME280;55611;48.602;9.490;2023-02-24T02:52:54;96340;;;11.9;57
68628;BME280;55611;48.602;9.490;2023-02-24T02:55:23;96340;;;11.9;57
68628;BME280;55611;48.602;9.490;2023-02-24T02:57:52;96330;;;11.9;57
68628;BME280;55611;48.602;9.490;2023-02-24T03:00:24;96330;;;11.9;57
68628;BME280;55611;48.602;9.490;2023-02-24T03:02:53;96330;;;11.9;57
68628;BME280;55611;48.602;9.490;2023-02-24T03:05:24;96320;;;11.9;57
68628;BME280;55611;48.602;9.490;2023-02-24T03:07:54;96320;;;11.8;57
68628;BME280;55611;48.602;9.490;2023-02-24T03:10:25;96320;;;11.9;57
68628;BME280;55611;48.602;9.490;2023-02-24T03:12:56;96320;;;11.9;57
68628;BME280;55611;48.602;9.490;2023-02-24T03:15:26;96310;;;11.9;57
68628;BME280;55611;48.602;9.490;2023-02-24T03:17:59;96320;;;11.9;57
68628;BME280;55611;48.602;9.490;2023-02-24T03:20:29;96310;;;11.9;57
68628;BME280;55611;48.602;9.490;2023-02-24T03:22:58;96310;;;11.9;57
68628;BME280;55611;48.602;9.490;2023-02-24T03:25:29;96310;;;11.9;57
68628;BME280;55611;48.602;9.490;2023-02-24T03:27:59;96310;;;11.8;57
68628;BME280;55611;48.602;9.490;2023-02-24T03:30:31;96310;;;11.9;57
68628;BME280;55611;48.602;9.490;2023-02-24T03:33:01;96300;;;11.9;57
68628;BME280;55611;48.602;9.490;2023-02-24T03:35:30;96300;;;11.9;57
68628;BME280;55611;48.602;9.490;2023-02-24T03:38:00;96300;;;11.9;57
68628;BME280;55611;48.602;9.490;2023-02-24T03:40:30;96300;;;11.9;57
68628;BME280;55611;48.602;9.490;2023-02-24T03:43:02;96290;;;11.9;57
68628;BME280;55611;48.602;9.490;2023-02-24T03:45:35;96290;;;11.9;57
68628;BME280;55611;48.602;9.490;2023-02-24T03:48:03;96290;;;12;57
68628;BME280;55611;48.602;9.490;2023-02-24T03:50:32;96290;;;12;57
68628;BME280;55611;48.602;9.490;2023-02-24T03:53:14;96290;;;12;57
68628;BME280;55611;48.602;9.490;2023-02-24T03:55:37;96290;;;12.1;57
68628;BME280;55611;48.602;9.490;2023-02-24T03:58:37;96290;;;12.1;56.5
68628;BME280;55611;48.602;9.490;2023-02-24T04:00:52;96290;;;12;57
68628;BME280;55611;48.602;9.490;2023-02-24T04:03:10;96290;;;12;57
68628;BME280;55611;48.602;9.490;2023-02-24T04:05:38;96290;;;12.1;57
68628;BME280;55611;48.602;9.490;2023-02-24T04:08:06;96280;;;12.1;57
68628;BME280;55611;48.602;9.490;2023-02-24T04:10:40;96270;;;12.1;56.5
68628;BME280;55611;48.602;9.490;2023-02-24T04:13:16;96280;;;12.1;57
68628;BME280;55611;48.602;9.490;2023-02-24T04:15:40;96270;;;12;57
68628;BME280;55611;48.602;9.490;2023-02-24T04:18:10;96270;;;12.1;57
68628;BME280;55611;48.602;9.490;2023-02-24T04:20:38;96270;;;12.1;57
68628;BME280;55611;48.602;9.490;2023-02-24T04:23:10;96270;;;12.1;57
68628;BME280;55611;48.602;9.490;2023-02-24T04:25:41;96260;;;12.1;57
68628;BME280;55611;48.602;9.490;2023-02-24T04:28:10;96260;;;12.1;56.5
68628;BME280;55611;48.602;9.490;2023-02-24T04:30:42;96260;;;12.1;56.5
68628;BME280;55611;48.602;9.490;2023-02-24T04:33:11;96260;;;12.1;56.5
68628;BME280;55611;48.602;9.490;2023-02-24T04:35:43;96250;;;12.1;56.5
68628;BME280;55611;48.602;9.490;2023-02-24T04:38:12;96250;;;12;57
68628;BME280;55611;48.602;9.490;2023-02-24T04:40:43;96240;;;11.9;57
68628;BME280;55611;48.602;9.490;2023-02-24T04:43:13;96240;;;11.9;57
68628;BME280;55611;48.602;9.490;2023-02-24T04:45:44;96240;;;11.9;57
68628;BME280;55611;48.602;9.490;2023-02-24T04:48:14;96240;;;11.8;57
68628;BME280;55611;48.602;9.490;2023-02-24T04:50:45;96240;;;11.8;57
68628;BME280;55611;48.602;9.490;2023-02-24T04:53:15;96240;;;11.7;57
68628;BME280;55611;48.602;9.490;2023-02-24T04:55:46;96240;;;11.5;57
68628;BME280;55611;48.602;9.490;2023-02-24T04:58:17;96230;;;11.3;57.5
68628;BME280;55611;48.602;9.490;2023-02-24T05:00:48;96240;;;11.3;57.5
68628;BME280;55611;48.602;9.490;2023-02-24T05:03:17;96230;;;11.3;57.5
68628;BME280;55611;48.602;9.490;2023-02-24T05:05:49;96240;;;11.1;57.5
68628;BME280;55611;48.602;9.490;2023-02-24T05:08:18;96240;;;11.1;57.5
68628;BME280;55611;48.602;9.490;2023-02-24T05:10:49;96240;;;11.1;57.5
68628;BME280;55611;48.602;9.490;2023-02-24T05:13:21;96230;;;10.9;57.5
68628;BME280;55611;48.602;9.490;2023-02-24T05:15:50;96240;;;10.9;57.5
68628;BME280;55611;48.602;9.490;2023-02-24T05:18:20;96230;;;10.9;57.5
68628;BME280;55611;48.602;9.490;2023-02-24T05:20:52;96230;;;10.9;57.5
68628;BME280;55611;48.602;9.490;2023-02-24T05:23:25;96230;;;11;57.5
68628;BME280;55611;48.602;9.490;2023-02-24T05:25:52;96230;;;11.1;57.5
68628;BME280;55611;48.602;9.490;2023-02-24T05:28:23;96220;;;11.1;57.5
68628;BME280;55611;48.602;9.490;2023-02-24T05:30:53;96220;;;11.2;57.5
68628;BME280;55611;48.602;9.490;2023-02-24T05:33:23;96220;;;11.3;57.5
68628;BME280;55611;48.602;9.490;2023-02-24T05:35:54;96220;;;11.2;57.5
68628;BME280;55611;48.602;9.490;2023-02-24T05:38:24;96220;;;11.2;57.5
68628;BME280;55611;48.602;9.490;2023-02-24T05:41:02;96210;;;11.2;57.5
68628;BME280;55611;48.602;9.490;2023-02-24T05:43:25;96210;;;11.2;57.5
68628;BME280;55611;48.602;9.490;2023-02-24T05:46:03;96210;;;11.2;57.5
68628;BME280;55611;48.602;9.490;2023-02-24T05:48:27;96210;;;11.2;57.5
68628;BME280;55611;48.602;9.490;2023-02-24T05:50:57;96200;;;11.2;57.5
68628;BME280;55611;48.602;9.490;2023-02-24T05:53:28;96190;;;11.2;57.5
68628;BME280;55611;48.602;9.490;2023-02-24T05:56:00;96190;;;11.2;57.5
68628;BME280;55611;48.602;9.490;2023-02-24T05:58:29;96200;;;11.3;57.5
68628;BME280;55611;48.602;9.490;2023-02-24T06:00:59;96190;;;11.3;57.5
68628;BME280;55611;48.602;9.490;2023-02-24T06:03:30;96190;;;11.4;57.5
68628;BME280;55611;48.602;9.490;2023-02-24T06:06:01;96190;;;11.4;57.5
68628;BME280;55611;48.602;9.490;2023-02-24T06:08:31;96180;;;11.4;57.5
68628;BME280;55611;48.602;9.490;2023-02-24T06:11:01;96190;;;11.4;57.5
68628;BME280;55611;48.602;9.490;2023-02-24T06:13:32;96180;;;11.4;57.5
68628;BME280;55611;48.602;9.490;2023-02-24T06:16:03;96180;;;11.5;57.5
68628;BME280;55611;48.602;9.490;2023-02-24T06:18:33;96170;;;11.5;57.5
68628;BME280;55611;48.602;9.490;2023-02-24T06:21:03;96170;;;11.6;57.5
68628;BME280;55611;48.602;9.490;2023-02-24T06:23:34;96170;;;11.6;57.5
68628;BME280;55611;48.602;9.490;2023-02-24T06:26:04;96160;;;11.5;57.5
68628;BME280;55611;48.602;9.490;2023-02-24T06:28:35;96170;;;11.5;57.5
68628;BME280;55611;48.602;9.490;2023-02-24T06:31:05;96170;;;11.5;57.5
68628;BME280;55611;48.602;9.490;2023-02-24T06:33:37;96170;;;11.5;57.5
68628;BME280;55611;48.602;9.490;2023-02-24T06:36:06;96160;;;11.5;57.5
68628;BME280;55611;48.602;9.490;2023-02-24T06:38:37;96160;;;11.5;57.5
68628;BME280;55611;48.602;9.490;2023-02-24T06:41:07;96170;;;11.5;57.5
68628;BME280;55611;48.602;9.490;2023-02-24T06:43:39;96160;;;11.5;57.5
68628;BME280;55611;48.602;9.490;2023-02-24T06:46:10;96160;;;11.6;57.5
68628;BME280;55611;48.602;9.490;2023-02-24T06:48:39;96160;;;11.6;57.5
68628;BME280;55611;48.602;9.490;2023-02-24T06:51:11;96160;;;11.7;57.5
68628;BME280;55611;48.602;9.490;2023-02-24T06:53:40;96160;;;11.8;57
68628;BME280;55611;48.602;9.490;2023-02-24T06:56:12;96160;;;11.8;57
68628;BME280;55611;48.602;9.490;2023-02-24T06:58:42;96170;;;11.9;57
68628;BME280;55611;48.602;9.490;2023-02-24T07:01:13;96170;;;11.8;57
68628;BME280;55611;48.602;9.490;2023-02-24T07:03:42;96160;;;11.7;57
68628;BME280;55611;48.602;9.490;2023-02-24T07:06:13;96170;;;11.7;57
68628;BME280;55611;48.602;9.490;2023-02-24T07:08:43;96160;;;11.7;57
68628;BME280;55611;48.602;9.490;2023-02-24T07:11:14;96160;;;11.7;57
68628;BME280;55611;48.602;9.490;2023-02-24T07:13:45;96160;;;11.7;57
68628;BME280;55611;48.602;9.490;2023-02-24T07:16:15;96160;;;11.6;57
68628;BME280;55611;48.602;9.490;2023-02-24T07:18:45;96150;;;11.6;57
68628;BME280;55611;48.602;9.490;2023-02-24T07:21:16;96150;;;11.6;57
68628;BME280;55611;48.602;9.490;2023-02-24T07:23:46;96140;;;11.7;57
68628;BME280;55611;48.602;9.490;2023-02-24T07:26:18;96140;;;11.8;57
68628;BME280;55611;48.602;9.490;2023-02-24T07:28:47;96140;;;11.9;57
68628;BME280;55611;48.602;9.490;2023-02-24T07:31:18;96140;;;12;57
68628;BME280;55611;48.602;9.490;2023-02-24T07:33:51;96140;;;11.9;57
68628;BME280;55611;48.602;9.490;2023-02-24T07:36:19;96130;;;11.9;57
68628;BME280;55611;48.602;9.490;2023-02-24T07:38:51;96130;;;11.8;57
68628;BME280;55611;48.602;9.490;2023-02-24T07:41:21;96130;;;11.8;57
68628;BME280;55611;48.602;9.490;2023-02-24T07:43:51;96140;;;11.8;57
68628;BME280;55611;48.602;9.490;2023-02-24T07:46:22;96140;;;11.7;57.5
68628;BME280;55611;48.602;9.490;2023-02-24T07:48:51;96140;;;11.7;57.5
68628;BME280;55611;48.602;9.490;2023-02-24T07:51:23;96140;;;11.6;57.5
68628;BME280;55611;48.602;9.490;2023-02-24T07:53:53;96140;;;11.6;57.5
68628;BME280;55611;48.602;9.490;2023-02-24T07:56:24;96130;;;11.6;58
68628;BME280;55611;48.602;9.490;2023-02-24T07:58:56;96130;;;11.6;58
68628;BME280;55611;48.602;9.490;2023-02-24T08:01:25;96130;;;11.6;58
68628;BME280;55611;48.602;9.490;2023-02-24T08:03:56;96130;;;11.7;58
68628;BME280;55611;48.602;9.490;2023-02-24T08:06:29;96130;;;11.8;58
68628;BME280;55611;48.602;9.490;2023-02-24T08:08:55;96120;;;11.8;58
68628;BME280;55611;48.602;9.490;2023-02-24T08:11:26;96120;;;11.9;58
68628;BME280;55611;48.602;9.490;2023-02-24T08:13:56;96120;;;11.9;58
68628;BME280;55611;48.602;9.490;2023-02-24T08:16:28;96120;;;12;58
68628;BME280;55611;48.602;9.490;2023-02-24T08:18:57;96120;;;12;58
68628;BME280;55611;48.602;9.490;2023-02-24T08:21:28;96110;;;12.1;58
68628;BME280;55611;48.602;9.490;2023-02-24T08:23:58;96110;;;12.2;58
68628;BME280;55611;48.602;9.490;2023-02-24T08:26:29;96100;;;12.2;58
68628;BME280;55611;48.602;9.490;2023-02-24T08:28:59;96100;;;12.3;57.5
68628;BME280;55611;48.602;9.490;2023-02-24T08:31:30;96100;;;12.3;58
68628;BME280;55611;48.602;9.490;2023-02-24T08:34:00;96100;;;12.2;58
68628;BME280;55611;48.602;9.490;2023-02-24T08:36:33;96100;;;12.1;58
68628;BME280;55611;48.602;9.490;2023-02-24T08:39:02;96090;;;12.1;58
68628;BME280;55611;48.602;9.490;2023-02-24T08:41:32;96100;;;11.8;58
68628;BME280;55611;48.602;9.490;2023-02-24T08:44:03;96100;;;11.7;58
68628;BME280;55611;48.602;9.490;2023-02-24T08:46:33;96100;;;11.6;58
68628;BME280;55611;48.602;9.490;2023-02-24T08:49:04;96090;;;11.6;58
68628;BME280;55611;48.602;9.490;2023-02-24T08:51:34;96090;;;11.6;58
68628;BME280;55611;48.602;9.490;2023-02-24T08:54:06;96090;;;11.7;58
68628;BME280;55611;48.602;9.490;2023-02-24T08:56:36;96080;;;11.8;58
68628;BME280;55611;48.602;9.490;2023-02-24T08:59:06;96080;;;11.8;58
68628;BME280;55611;48.602;9.490;2023-02-24T09:01:37;96080;;;11.8;58
68628;BME280;55611;48.602;9.490;2023-02-24T09:04:08;96080;;;11.8;58
68628;BME280;55611;48.602;9.490;2023-02-24T09:06:46;96070;;;11.9;58
68628;BME280;55611;48.602;9.490;2023-02-24T09:09:08;96070;;;11.9;58
68628;BME280;55611;48.602;9.490;2023-02-24T09:11:39;96070;;;11.8;58
68628;BME280;55611;48.602;9.490;2023-02-24T09:14:10;96070;;;11.8;58
68628;BME280;55611;48.602;9.490;2023-02-24T09:16:39;96070;;;11.8;58
68628;BME280;55611;48.602;9.490;2023-02-24T09:19:10;96070;;;11.8;58
68628;BME280;55611;48.602;9.490;2023-02-24T09:21:40;96070;;;11.9;58
68628;BME280;55611;48.602;9.490;2023-02-24T09:24:11;96070;;;12;58
68628;BME280;55611;48.602;9.490;2023-02-24T09:26:42;96070;;;12.1;58
68628;BME280;55611;48.602;9.490;2023-02-24T09:29:12;96060;;;12.1;58
68628;BME280;55611;48.602;9.490;2023-02-24T09:31:42;96070;;;12.1;58
68628;BME280;55611;48.602;9.490;2023-02-24T09:34:13;96070;;;12;58
68628;BME280;55611;48.602;9.490;2023-02-24T09:36:43;96070;;;12;58
68628;BME280;55611;48.602;9.490;2023-02-24T09:39:14;96060;;;12;58
68628;BME280;55611;48.602;9.490;2023-02-24T09:41:45;96050;;;12;58
68628;BME280;55611;48.602;9.490;2023-02-24T09:49:34;96050;;;12.1;58
68628;BME280;55611;48.602;9.490;2023-02-24T09:51:57;96050;;;12;58
68628;BME280;55611;48.602;9.490;2023-02-24T09:56:50;96050;;;11.8;58
68628;BME280;55611;48.602;9.490;2023-02-24T09:59:35;96050;;;11.8;58
68628;BME280;55611;48.602;9.490;2023-02-24T10:01:54;96040;;;11.8;58
68628;BME280;55611;48.602;9.490;2023-02-24T10:04:36;96050;;;11.7;58
68628;BME280;55611;48.602;9.490;2023-02-24T10:06:50;96050;;;11.7;58
68628;BME280;55611;48.602;9.490;2023-02-24T10:09:23;96050;;;11.8;58
68628;BME280;55611;48.602;9.490;2023-02-24T10:11:50;96050;;;11.8;58
68628;BME280;55611;48.602;9.490;2023-02-24T10:14:30;96050;;;11.8;58
68628;BME280;55611;48.602;9.490;2023-02-24T10:16:51;96040;;;11.8;58
68628;BME280;55611;48.602;9.490;2023-02-24T10:19:23;96040;;;11.8;58
68628;BME280;55611;48.602;9.490;2023-02-24T10:24:24;96040;;;12;58
68628;BME280;55611;48.602;9.490;2023-02-24T10:26:57;96040;;;12;58
68628;BME280;55611;48.602;9.490;2023-02-24T10:29:27;96040;;;12;58
68628;BME280;55611;48.602;9.490;2023-02-24T10:31:57;96040;;;12.1;58
68628;BME280;55611;48.602;9.490;2023-02-24T10:34:25;96040;;;12.2;58
68628;BME280;55611;48.602;9.490;2023-02-24T10:36:55;96040;;;12.2;58
68628;BME280;55611;48.602;9.490;2023-02-24T10:39:25;96030;;;12.2;58
68628;BME280;55611;48.602;9.490;2023-02-24T10:41:57;96030;;;12.2;58
68628;BME280;55611;48.602;9.490;2023-02-24T10:44:27;96030;;;12.2;58
68628;BME280;55611;48.602;9.490;2023-02-24T10:46:59;96030;;;12.3;58
68628;BME280;55611;48.602;9.490;2023-02-24T10:49:27;96020;;;12.5;58
68628;BME280;55611;48.602;9.490;2023-02-24T10:51:58;96020;;;12.6;58
68628;BME280;55611;48.602;9.490;2023-02-24T10:54:28;96010;;;12.6;58
68628;BME280;55611;48.602;9.490;2023-02-24T10:57:03;96010;;;12.5;58
68628;BME280;55611;48.602;9.490;2023-02-24T10:59:29;96000;;;12.6;57.5
68628;BME280;55611;48.602;9.490;2023-02-24T11:02:07;96010;;;12.6;57.5
68628;BME280;55611;48.602;9.490;2023-02-24T11:04:32;96010;;;12.6;57.5
68628;BME280;55611;48.602;9.490;2023-02-24T11:07:03;96000;;;12.6;57.5
68628;BME280;55611;48.602;9.490;2023-02-24T11:09:32;96000;;;12.5;57.5
68628;BME280;55611;48.602;9.490;2023-02-24T11:12:05;95990;;;12.5;57.5
68628;BME280;55611;48.602;9.490;2023-02-24T11:14:35;95980;;;12.5;57.5
68628;BME280;55611;48.602;9.490;2023-02-24T11:17:03;95990;;;12.3;58
68628;BME280;55611;48.602;9.490;2023-02-24T11:19:40;95980;;;12.4;58
68628;BME280;55611;48.602;9.490;2023-02-24T11:22:04;95970;;;12.5;58
68628;BME280;55611;48.602;9.490;2023-02-24T11:24:35;95960;;;12.6;57.5
68628;BME280;55611;48.602;9.490;2023-02-24T11:27:05;95970;;;12.7;57.5
68628;BME280;55611;48.602;9.490;2023-02-24T11:29:39;95960;;;12.8;57.5
68628;BME280;55611;48.602;9.490;2023-02-24T11:32:17;95960;;;12.7;57.5
68628;BME280;55611;48.602;9.490;2023-02-24T11:37:12;95940;;;12.7;57.5
68628;BME280;55611;48.602;9.490;2023-02-24T11:40:12;95930;;;12.8;57.5
68628;BME280;55611;48.602;9.490;2023-02-24T11:42:11;95930;;;12.7;57.5
68628;BME280;55611;48.602;9.490;2023-02-24T11:45:44;95930;;;12.7;57.5
68628;BME280;55611;48.602;9.490;2023-02-24T11:47:12;95920;;;12.7;57.5
68628;BME280;55611;48.602;9.490;2023-02-24T11:49:41;95920;;;12.7;57.5
68628;BME280;55611;48.602;9.490;2023-02-24T11:52:15;95920;;;12.7;57.5
68628;BME280;55611;48.602;9.490;2023-02-24T11:54:43;95910;;;12.8;57.5
68628;BME280;55611;48.602;9.490;2023-02-24T11:57:12;95910;;;12.9;57.5
68628;BME280;55611;48.602;9.490;2023-02-24T11:59:43;95900;;;12.8;57.5
68628;BME280;55611;48.602;9.490;2023-02-24T12:02:18;95890;;;12.8;57.5
68628;BME280;55611;48.602;9.490;2023-02-24T12:04:45;95880;;;12.8;57.5
68628;BME280;55611;48.602;9.490;2023-02-24T12:07:18;95870;;;13;57.5
68628;BME280;55611;48.602;9.490;2023-02-24T12:09:46;95870;;;13.1;57.5
68628;BME280;55611;48.602;9.490;2023-02-24T12:12:16;95870;;;13.2;57.5
68628;BME280;55611;48.602;9.490;2023-02-24T12:14:46;95860;;;13.4;57.5
68628;BME280;55611;48.602;9.490;2023-02-24T12:17:18;95860;;;13.6;57.5
68628;BME280;55611;48.602;9.490;2023-02-24T12:19:50;95850;;;13.8;57.5
68628;BME280;55611;48.602;9.490;2023-02-24T12:22:17;95840;;;13.8;57.5
68628;BME280;55611;48.602;9.490;2023-02-24T12:24:48;95840;;;13.9;57.5
68628;BME280;55611;48.602;9.490;2023-02-24T12:27:25;95840;;;13.9;57.5
68628;BME280;55611;48.602;9.490;2023-02-24T12:29:52;95830;;;14.1;57.5
68628;BME280;55611;48.602;9.490;2023-02-24T12:33:25;95820;;;14.2;57.5
68628;BME280;55611;48.602;9.490;2023-02-24T12:37:29;95820;;;14.3;57.5
68628;BME280;55611;48.602;9.490;2023-02-24T12:42:23;95810;;;14;57.5
68628;BME280;55611;48.602;9.490;2023-02-24T12:44:55;95810;;;13.8;57.5
68628;BME280;55611;48.602;9.490;2023-02-24T12:49:57;95800;;;13.7;57.5
68628;BME280;55611;48.602;9.490;2023-02-24T12:52:26;95810;;;13.7;57.5
68628;BME280;55611;48.602;9.490;2023-02-24T12:54:59;95800;;;13.8;57.5
68628;BME280;55611;48.602;9.490;2023-02-24T12:57:26;95810;;;13.8;57.5
68628;BME280;55611;48.602;9.490;2023-02-24T13:02:31;95800;;;13.6;57.5
68628;BME280;55611;48.602;9.490;2023-02-24T13:04:58;95800;;;13.5;57.5
68628;BME280;55611;48.602;9.490;2023-02-24T13:07:32;95790;;;13.4;57.5
68628;BME280;55611;48.602;9.490;2023-02-24T13:10:17;95790;;;13.4;57.5
68628;BME280;55611;48.602;9.490;2023-02-24T13:12:30;95780;;;13.5;57
68628;BME280;55611;48.602;9.490;2023-02-24T13:14:57;95780;;;13.6;57
68628;BME280;55611;48.602;9.490;2023-02-24T13:17:28;95770;;;13.5;57.5
68628;BME280;55611;48.602;9.490;2023-02-24T13:20:07;95770;;;13.6;57.5
68628;BME280;55611;48.602;9.490;2023-02-24T13:22:29;95760;;;13.6;57.5
68628;BME280;55611;48.602;9.490;2023-02-24T13:25:02;95750;;;13.7;57.5
68628;BME280;55611;48.602;9.490;2023-02-24T13:27:32;95740;;;13.8;57.5
68628;BME280;55611;48.602;9.490;2023-02-24T13:30:03;95740;;;13.8;57.5
68628;BME280;55611;48.602;9.490;2023-02-24T13:32:35;95740;;;13.9;57
68628;BME280;55611;48.602;9.490;2023-02-24T13:35:27;95730;;;13.9;57
68628;BME280;55611;48.602;9.490;2023-02-24T13:37:33;95730;;;14;57
68628;BME280;55611;48.602;9.490;2023-02-24T13:40:23;95730;;;13.9;57
68628;BME280;55611;48.602;9.490;2023-02-24T13:42:33;95730;;;13.8;57
68628;BME280;55611;48.602;9.490;2023-02-24T13:45:05;95740;;;13.8;57
68628;BME280;55611;48.602;9.490;2023-02-24T13:47:55;95730;;;13.7;57
68628;BME280;55611;48.602;9.490;2023-02-24T13:50:21;95730;;;13.6;57
68628;BME280;55611;48.602;9.490;2023-02-24T13:52:40;95720;;;13.5;57
68628;BME280;55611;48.602;9.490;2023-02-24T13:55:12;95710;;;13.5;57
68628;BME280;55611;48.602;9.490;2023-02-24T13:57:46;95710;;;13.4;57
68628;BME280;55611;48.602;9.490;2023-02-24T14:00:24;95710;;;13.4;57
68628;BME280;55611;48.602;9.490;2023-02-24T14:02:38;95710;;;13.3;57
68628;BME280;55611;48.602;9.490;2023-02-24T14:05:08;95710;;;13.3;57
68628;BME280;55611;48.602;9.490;2023-02-24T14:07:38;95700;;;13.3;57
68628;BME280;55611;48.602;9.490;2023-02-24T14:10:17;95700;;;13.4;57
68628;BME280;55611;48.602;9.490;2023-02-24T14:12:40;95700;;;13.3;57
68628;BME280;55611;48.602;9.490;2023-02-24T14:15:12;95690;;;13.3;57
68628;BME280;55611;48.602;9.490;2023-02-24T14:17:40;95680;;;13.4;57
68628;BME280;55611;48.602;9.490;2023-02-24T14:20:18;95660;;;13.5;57
68628;BME280;55611;48.602;9.490;2023-02-24T14:22:42;95670;;;13.5;57
68628;BME280;55611;48.602;9.490;2023-02-24T14:25:12;95670;;;13.5;57
68628;BME280;55611;48.602;9.490;2023-02-24T14:27:44;95660;;;13.5;56.5
68628;BME280;55611;48.602;9.490;2023-02-24T14:30:31;95670;;;13.4;57
68628;BME280;55611;48.602;9.490;2023-02-24T14:32:43;95660;;;13.4;57
68628;BME280;55611;48.602;9.490;2023-02-24T14:35:45;95660;;;13.5;57
68628;BME280;55611;48.602;9.490;2023-02-24T14:37:44;95650;;;13.5;57
68628;BME280;55611;48.602;9.490;2023-02-24T14:40:15;95640;;;13.4;57
68628;BME280;55611;48.602;9.490;2023-02-24T14:42:46;95650;;;13.4;57
68628;BME280;55611;48.602;9.490;2023-02-24T14:45:17;95640;;;13.4;57
68628;BME280;55611;48.602;9.490;2023-02-24T14:47:46;95630;;;13.4;57
68628;BME280;55611;48.602;9.490;2023-02-24T14:50:18;95630;;;13.4;57
68628;BME280;55611;48.602;9.490;2023-02-24T14:52:49;95630;;;13.4;57
68628;BME280;55611;48.602;9.490;2023-02-24T14:55:19;95620;;;13.3;57
68628;BME280;55611;48.602;9.490;2023-02-24T14:57:51;95630;;;13.3;57
68628;BME280;55611;48.602;9.490;2023-02-24T15:00:20;95620;;;13.3;57
68628;BME280;55611;48.602;9.490;2023-02-24T15:02:52;95620;;;13.2;57
68628;BME280;55611;48.602;9.490;2023-02-24T15:05:20;95620;;;13.2;57
68628;BME280;55611;48.602;9.490;2023-02-24T15:07:50;95620;;;13.1;57